Time;durP1;ratioP1;P1;durP2;ratioP2;P2;SDS_P1;SDS_P2;PMS_P1;PMS_P2;Temp;Humidity;BMP_temperature;BMP_pressure;BME280_temperature;BME280_humidity;BME280_pressure;Samples;Min_cycle;Max_cycle;Signal;HPM_P1;HPM_P2
2022/12/20 00:01:54;;;;;;;;;;;19.60;49.70;;;;;;5082200;28;43542;-60
2022/12/20 00:04:21;;;;;;;;;;;19.60;49.70;;;;;;5080842;28;44236;-60
2022/12/20 00:06:49;;;;;;;;;;;19.60;49.70;;;;;;5082892;28;43418;-61
2022/12/20 00:09:16;;;;;;;;;;;19.60;49.70;;;;;;5081832;27;43460;-60
2022/12/20 00:11:43;;;;;;;;;;;19.60;49.70;;;;;;5087983;27;43488;-61
2022/12/20 00:14:11;;;;;;;;;;;19.60;49.70;;;;;;5093347;27;43812;-60
2022/12/20 00:16:38;;;;;;;;;;;19.60;49.80;;;;;;5096091;27;43404;-60
2022/12/20 00:19:06;;;;;;;;;;;19.60;49.70;;;;;;5085892;27;43999;-61
2022/12/20 00:21:34;;;;;;;;;;;19.60;49.80;;;;;;5097727;27;43547;-61
2022/12/20 00:24:02;;;;;;;;;;;19.60;49.70;;;;;;5091354;27;44970;-61
2022/12/20 00:26:31;;;;;;;;;;;19.60;49.70;;;;;;5107272;27;43385;-61
2022/12/20 00:28:59;;;;;;;;;;;19.60;49.80;;;;;;5088138;27;43472;-61
2022/12/20 00:31:28;;;;;;;;;;;19.50;49.70;;;;;;5101109;27;43527;-60
2022/12/20 00:33:56;;;;;;;;;;;19.60;49.90;;;;;;5091729;27;43900;-60
2022/12/20 00:36:24;;;;;;;;;;;19.60;49.80;;;;;;5094500;27;43561;-61
2022/12/20 00:38:53;;;;;;;;;;;19.60;49.90;;;;;;5085812;27;43459;-61
2022/12/20 00:41:22;;;;;;;;;;;19.50;49.90;;;;;;5099857;27;43741;-60
2022/12/20 00:43:50;;;;;;;;;;;19.50;49.90;;;;;;5091693;27;44024;-61
2022/12/20 00:46:18;;;;;;;;;;;19.50;49.90;;;;;;5095992;27;43437;-61
2022/12/20 00:48:45;;;;;;;;;;;19.50;49.90;;;;;;5083965;27;43486;-61
2022/12/20 00:51:18;;;;;;;;;;;19.50;49.90;;;;;;5094994;27;43497;-61
2022/12/20 00:53:45;;;;;;;;;;;19.50;49.90;;;;;;5092288;27;43790;-61
2022/12/20 00:56:13;;;;;;;;;;;19.50;49.90;;;;;;5085516;27;43485;-61
2022/12/20 00:58:41;;;;;;;;;;;19.50;49.90;;;;;;5096460;27;43472;-61
2022/12/20 01:01:16;;;;;;;;;;;19.50;49.90;;;;;;5089853;27;43531;-61
2022/12/20 01:03:44;;;;;;;;;;;19.50;49.90;;;;;;5089263;27;44047;-60
2022/12/20 01:06:12;;;;;;;;;;;19.50;49.90;;;;;;5096645;27;43525;-61
2022/12/20 01:08:40;;;;;;;;;;;19.50;49.90;;;;;;5081420;27;43430;-60
2022/12/20 01:11:09;;;;;;;;;;;19.50;50.00;;;;;;5090592;27;43484;-61
2022/12/20 01:13:38;;;;;;;;;;;19.40;50.00;;;;;;5086972;27;43789;-61
2022/12/20 01:16:25;;;;;;;;;;;19.40;50.00;;;;;;5098390;27;43460;-61
2022/12/20 01:18:53;;;;;;;;;;;19.40;50.00;;;;;;5087478;27;43418;-61
2022/12/20 01:21:22;;;;;;;;;;;19.40;50.00;;;;;;5089922;27;43579;-61
2022/12/20 01:23:49;;;;;;;;;;;19.40;50.00;;;;;;5098371;27;43785;-61
2022/12/20 01:26:18;;;;;;;;;;;19.40;50.00;;;;;;5099679;27;43375;-61
2022/12/20 01:28:46;;;;;;;;;;;19.40;50.00;;;;;;5093315;27;43464;-61
2022/12/20 01:31:15;;;;;;;;;;;19.40;50.00;;;;;;5091779;27;43495;-61
2022/12/20 01:33:43;;;;;;;;;;;19.40;50.00;;;;;;5100818;27;44961;-60
2022/12/20 01:36:12;;;;;;;;;;;19.40;50.00;;;;;;5089618;27;43411;-61
2022/12/20 01:38:40;;;;;;;;;;;19.30;50.00;;;;;;5096318;27;44024;-60
2022/12/20 01:41:07;;;;;;;;;;;19.30;50.00;;;;;;5093273;27;43429;-61
2022/12/20 01:44:13;;;;;;;;;;;19.30;50.00;;;;;;5087346;27;44334;-61
2022/12/20 01:46:41;;;;;;;;;;;19.30;50.00;;;;;;5031456;28;43459;-61
2022/12/20 01:49:16;;;;;;;;;;;19.30;50.10;;;;;;5040968;28;43491;-61
2022/12/20 01:51:45;;;;;;;;;;;19.30;50.10;;;;;;5073701;27;43506;-61
2022/12/20 01:54:15;;;;;;;;;;;19.30;50.10;;;;;;5088718;27;43776;-61
2022/12/20 01:56:45;;;;;;;;;;;19.30;50.20;;;;;;5100359;27;44076;-61
2022/12/20 01:59:13;;;;;;;;;;;19.30;50.10;;;;;;5087276;27;43446;-61
2022/12/20 02:01:41;;;;;;;;;;;19.30;50.10;;;;;;5103561;27;43475;-61
2022/12/20 02:04:11;;;;;;;;;;;19.20;50.10;;;;;;5096139;27;44054;-61
2022/12/20 02:06:38;;;;;;;;;;;19.30;50.30;;;;;;5096123;27;43607;-61
2022/12/20 02:09:07;;;;;;;;;;;19.30;50.10;;;;;;5086296;27;43499;-61
2022/12/20 02:11:35;;;;;;;;;;;19.30;50.10;;;;;;5084180;27;43488;-61
2022/12/20 02:14:11;;;;;;;;;;;19.30;50.10;;;;;;5075121;27;43890;-61
2022/12/20 02:16:43;;;;;;;;;;;19.20;50.20;;;;;;5090322;27;43406;-61
2022/12/20 02:19:34;;;;;;;;;;;19.20;50.10;;;;;;5100460;27;43410;-60
2022/12/20 02:22:11;;;;;;;;;;;19.20;50.10;;;;;;5083308;27;43578;-61
2022/12/20 02:24:51;;;;;;;;;;;19.20;50.20;;;;;;5084974;27;43776;-61
2022/12/20 02:27:18;;;;;;;;;;;19.20;50.20;;;;;;5084923;27;43501;-61
2022/12/20 02:30:13;;;;;;;;;;;19.20;50.10;;;;;;5090337;27;43486;-61
2022/12/20 02:32:54;;;;;;;;;;;19.20;50.10;;;;;;5083763;27;43578;-61
2022/12/20 02:35:24;;;;;;;;;;;19.20;50.10;;;;;;5082727;27;44838;-61
2022/12/20 02:37:53;;;;;;;;;;;19.20;50.10;;;;;;5083654;27;43446;-61
2022/12/20 02:40:23;;;;;;;;;;;19.20;50.10;;;;;;5094580;27;43461;-61
2022/12/20 02:42:53;;;;;;;;;;;19.20;50.10;;;;;;5086609;27;43388;-61
2022/12/20 02:45:22;;;;;;;;;;;19.10;50.10;;;;;;5095419;27;44669;-61
2022/12/20 02:47:49;;;;;;;;;;;19.20;50.30;;;;;;5094299;27;43852;-61
2022/12/20 02:50:20;;;;;;;;;;;19.20;50.10;;;;;;5086438;27;43466;-61
2022/12/20 02:52:47;;;;;;;;;;;19.20;50.20;;;;;;5100802;27;43560;-61
2022/12/20 02:55:16;;;;;;;;;;;19.20;50.20;;;;;;5090417;27;43792;-61
2022/12/20 02:58:01;;;;;;;;;;;19.20;50.20;;;;;;5091196;27;43492;-60
2022/12/20 03:00:32;;;;;;;;;;;19.10;50.10;;;;;;5099064;27;43474;-61
2022/12/20 03:05:46;;;;;;;;;;;19.10;50.20;;;;;;5083629;27;44993;-61
2022/12/20 03:08:16;;;;;;;;;;;19.10;50.10;;;;;;5082319;27;44101;-61
2022/12/20 03:10:44;;;;;;;;;;;19.10;50.20;;;;;;5081973;27;43366;-60
2022/12/20 03:13:11;;;;;;;;;;;19.10;50.20;;;;;;5093883;27;43422;-61
2022/12/20 03:15:46;;;;;;;;;;;19.10;50.10;;;;;;5101929;27;44046;-61
2022/12/20 03:18:14;;;;;;;;;;;19.10;50.20;;;;;;5085392;27;43797;-60
2022/12/20 03:20:41;;;;;;;;;;;19.10;50.20;;;;;;5097297;27;43411;-61
2022/12/20 03:23:08;;;;;;;;;;;19.10;50.30;;;;;;5094360;27;43456;-61
2022/12/20 03:25:36;;;;;;;;;;;19.10;50.20;;;;;;5087884;27;43806;-61
2022/12/20 03:28:04;;;;;;;;;;;19.10;50.20;;;;;;5098869;27;43509;-61
2022/12/20 03:30:32;;;;;;;;;;;19.10;50.30;;;;;;5088702;27;44023;-60
2022/12/20 03:32:59;;;;;;;;;;;19.10;50.30;;;;;;5090836;27;43497;-61
2022/12/20 03:35:27;;;;;;;;;;;19.00;50.20;;;;;;5096905;27;45267;-62
2022/12/20 03:37:55;;;;;;;;;;;19.00;50.20;;;;;;5085772;27;43479;-60
2022/12/20 03:40:23;;;;;;;;;;;19.10;50.30;;;;;;5094213;27;44014;-61
2022/12/20 03:42:51;;;;;;;;;;;19.10;50.30;;;;;;5094867;27;43413;-61
2022/12/20 03:45:19;;;;;;;;;;;19.00;50.20;;;;;;5087794;27;43810;-60
2022/12/20 03:47:47;;;;;;;;;;;19.00;50.20;;;;;;5096724;27;43730;-60
2022/12/20 03:50:14;;;;;;;;;;;19.00;50.20;;;;;;5088040;27;43487;-61
2022/12/20 03:52:42;;;;;;;;;;;19.00;50.30;;;;;;5090805;27;43608;-61
2022/12/20 03:55:11;;;;;;;;;;;19.00;50.30;;;;;;5087515;27;44035;-61
2022/12/20 03:57:41;;;;;;;;;;;19.00;50.30;;;;;;5098020;27;43511;-61
2022/12/20 04:00:30;;;;;;;;;;;19.00;50.30;;;;;;5091336;27;43458;-61
2022/12/20 04:03:16;;;;;;;;;;;19.00;50.30;;;;;;5084983;27;43624;-61
2022/12/20 04:05:44;;;;;;;;;;;19.00;50.30;;;;;;5096458;27;43892;-61
2022/12/20 04:08:11;;;;;;;;;;;19.00;50.30;;;;;;5090024;27;43838;-61
2022/12/20 04:11:14;;;;;;;;;;;19.00;50.40;;;;;;5087871;27;43485;-61
2022/12/20 04:13:32;;;;;;;;;;;19.00;50.40;;;;;;5085936;27;43570;-61
2022/12/20 04:16:00;;;;;;;;;;;19.00;50.50;;;;;;5100471;27;43734;-61
2022/12/20 04:18:32;;;;;;;;;;;18.90;50.40;;;;;;5088572;27;44097;-61
2022/12/20 04:21:00;;;;;;;;;;;18.90;50.40;;;;;;5099118;27;43470;-61
2022/12/20 04:23:30;;;;;;;;;;;18.90;50.60;;;;;;5096159;27;43530;-61
2022/12/20 04:25:58;;;;;;;;;;;19.00;50.50;;;;;;5091257;27;43792;-61
2022/12/20 04:28:28;;;;;;;;;;;18.90;50.50;;;;;;5086495;27;43347;-61
2022/12/20 04:30:56;;;;;;;;;;;18.90;50.40;;;;;;5098046;27;43424;-61
2022/12/20 04:33:26;;;;;;;;;;;18.90;50.40;;;;;;5087803;27;43947;-61
2022/12/20 04:35:54;;;;;;;;;;;18.90;50.50;;;;;;5090959;27;45199;-60
2022/12/20 04:38:23;;;;;;;;;;;18.90;50.40;;;;;;5095801;27;43437;-60
2022/12/20 04:40:53;;;;;;;;;;;18.90;50.60;;;;;;5084840;27;43466;-61
2022/12/20 04:43:23;;;;;;;;;;;18.90;50.50;;;;;;5093372;27;43468;-61
2022/12/20 04:45:52;;;;;;;;;;;18.90;50.50;;;;;;5092453;27;44198;-61
2022/12/20 04:48:20;;;;;;;;;;;18.90;50.50;;;;;;5084425;27;43376;-62
2022/12/20 04:51:07;;;;;;;;;;;18.90;50.60;;;;;;5080558;27;43515;-61
2022/12/20 04:53:46;;;;;;;;;;;18.90;50.50;;;;;;5091545;27;43427;-62
2022/12/20 04:56:38;;;;;;;;;;;18.90;50.50;;;;;;5083521;27;44978;-61
2022/12/20 04:59:11;;;;;;;;;;;18.90;50.60;;;;;;5094662;27;43435;-61
2022/12/20 05:01:41;;;;;;;;;;;18.90;50.60;;;;;;5097066;27;43398;-61
2022/12/20 05:04:10;;;;;;;;;;;18.90;50.50;;;;;;5070765;27;43553;-61
2022/12/20 05:06:37;;;;;;;;;;;18.90;50.50;;;;;;5084640;27;43884;-61
2022/12/20 05:09:06;;;;;;;;;;;18.90;50.60;;;;;;5091313;27;43499;-61
2022/12/20 05:11:33;;;;;;;;;;;18.90;50.60;;;;;;5084581;27;43427;-61
2022/12/20 05:14:02;;;;;;;;;;;18.90;50.60;;;;;;5085815;27;43632;-61
2022/12/20 05:16:30;;;;;;;;;;;18.80;50.70;;;;;;5090246;27;43803;-61
2022/12/20 05:19:00;;;;;;;;;;;18.90;50.70;;;;;;5094549;27;43738;-60
2022/12/20 05:27:14;;;;;;;;;;;18.80;50.70;;;;;;5084524;27;44097;-61
2022/12/20 05:29:42;;;;;;;;;;;18.80;50.70;;;;;;5084315;27;43502;-61
2022/12/20 05:32:09;;;;;;;;;;;18.80;50.70;;;;;;5099960;27;43614;-61
2022/12/20 05:34:40;;;;;;;;;;;18.80;50.70;;;;;;5092881;27;43513;-61
2022/12/20 05:37:07;;;;;;;;;;;18.80;50.80;;;;;;5091111;27;44020;-61
2022/12/20 05:39:36;;;;;;;;;;;18.80;50.70;;;;;;5099492;27;43557;-61
2022/12/20 05:42:09;;;;;;;;;;;18.80;50.80;;;;;;5094620;27;43487;-61
2022/12/20 05:44:36;;;;;;;;;;;18.80;50.70;;;;;;5096278;27;43463;-61
2022/12/20 05:47:04;;;;;;;;;;;18.80;50.70;;;;;;5096740;27;43906;-61
2022/12/20 05:49:34;;;;;;;;;;;18.80;50.70;;;;;;5086918;27;43515;-62
2022/12/20 05:52:04;;;;;;;;;;;18.80;51.10;;;;;;5098189;27;43389;-61
2022/12/20 05:54:33;;;;;;;;;;;18.80;50.80;;;;;;5094004;27;43522;-61
2022/12/20 05:57:05;;;;;;;;;;;18.70;50.90;;;;;;5095229;27;43986;-61
2022/12/20 05:59:38;;;;;;;;;;;18.80;51.00;;;;;;5097359;27;43493;-60
2022/12/20 06:02:11;;;;;;;;;;;18.70;50.80;;;;;;5089388;27;43500;-61
2022/12/20 06:04:40;;;;;;;;;;;18.80;51.00;;;;;;5103251;27;43627;-61
2022/12/20 06:07:15;;;;;;;;;;;18.70;50.90;;;;;;5101987;27;44051;-60
2022/12/20 06:09:45;;;;;;;;;;;18.70;50.90;;;;;;5097382;27;43446;-61
2022/12/20 06:12:16;;;;;;;;;;;18.80;50.90;;;;;;5079991;28;43438;-61
2022/12/20 06:14:45;;;;;;;;;;;18.80;50.90;;;;;;5083369;27;43478;-61
2022/12/20 06:17:12;;;;;;;;;;;18.80;50.90;;;;;;5100423;27;44857;-61
2022/12/20 06:19:40;;;;;;;;;;;18.80;50.80;;;;;;5103141;27;43781;-60
2022/12/20 06:22:09;;;;;;;;;;;18.80;50.80;;;;;;5091768;27;43390;-61
2022/12/20 06:24:56;;;;;;;;;;;18.80;50.80;;;;;;5097108;27;43550;-61
2022/12/20 06:27:29;;;;;;;;;;;18.80;50.70;;;;;;5103195;27;43792;-61
2022/12/20 06:30:11;;;;;;;;;;;18.80;50.80;;;;;;5089942;27;43491;-61
2022/12/20 06:32:59;;;;;;;;;;;18.80;50.80;;;;;;5068794;27;43478;-61
2022/12/20 06:35:27;;;;;;;;;;;18.80;50.80;;;;;;5102687;27;43556;-61
2022/12/20 06:37:56;;;;;;;;;;;18.70;50.80;;;;;;5100276;27;44085;-61
2022/12/20 06:40:23;;;;;;;;;;;18.70;50.90;;;;;;5098998;27;44094;-61
2022/12/20 06:42:51;;;;;;;;;;;18.80;51.00;;;;;;5093104;27;43419;-61
2022/12/20 06:45:22;;;;;;;;;;;18.80;50.90;;;;;;5090106;27;43545;-61
2022/12/20 06:47:49;;;;;;;;;;;18.80;50.90;;;;;;5101716;27;43989;-60
2022/12/20 06:50:17;;;;;;;;;;;18.80;50.80;;;;;;5085658;27;43461;-60
2022/12/20 06:52:44;;;;;;;;;;;18.80;51.10;;;;;;5119205;27;43407;-61
2022/12/20 06:55:12;;;;;;;;;;;18.80;51.00;;;;;;5101157;27;43603;-61
2022/12/20 06:57:40;;;;;;;;;;;18.80;51.00;;;;;;5100782;27;45014;-61
2022/12/20 07:00:11;;;;;;;;;;;18.80;51.00;;;;;;5086102;27;43467;-61
2022/12/20 07:02:39;;;;;;;;;;;18.80;51.00;;;;;;5085894;27;43396;-61
2022/12/20 07:05:06;;;;;;;;;;;18.80;51.10;;;;;;5103375;27;43445;-61
2022/12/20 07:07:34;;;;;;;;;;;18.80;51.00;;;;;;5088092;27;44960;-61
2022/12/20 07:10:11;;;;;;;;;;;18.80;50.90;;;;;;5080524;28;43464;-61
2022/12/20 07:12:38;;;;;;;;;;;18.80;51.00;;;;;;5078716;28;43512;-60
2022/12/20 07:15:13;;;;;;;;;;;18.80;50.90;;;;;;5074376;28;43561;-61
2022/12/20 07:17:41;;;;;;;;;;;18.80;50.90;;;;;;5075865;28;43784;-61
2022/12/20 07:20:10;;;;;;;;;;;18.80;50.90;;;;;;5082067;28;43454;-61
2022/12/20 07:22:40;;;;;;;;;;;18.80;50.90;;;;;;5063556;28;43534;-61
2022/12/20 07:25:08;;;;;;;;;;;18.80;50.90;;;;;;5073759;28;43437;-61
2022/12/20 07:27:35;;;;;;;;;;;18.80;50.80;;;;;;5075504;28;43778;-63
2022/12/20 07:30:04;;;;;;;;;;;18.80;51.00;;;;;;5082089;28;43459;-63
2022/12/20 07:32:31;;;;;;;;;;;18.80;51.00;;;;;;5069554;28;43438;-61
2022/12/20 07:35:00;;;;;;;;;;;18.80;51.10;;;;;;5080534;28;43493;-61
2022/12/20 07:37:28;;;;;;;;;;;18.80;51.10;;;;;;5074632;28;44728;-61
2022/12/20 07:39:56;;;;;;;;;;;18.90;51.10;;;;;;5075064;28;43782;-62
2022/12/20 07:42:24;;;;;;;;;;;18.90;51.10;;;;;;5070861;28;43752;-64
2022/12/20 07:44:59;;;;;;;;;;;18.90;51.10;;;;;;5061472;28;43494;-61
2022/12/20 07:47:27;;;;;;;;;;;18.90;51.10;;;;;;5079870;28;44618;-61
2022/12/20 07:49:55;;;;;;;;;;;18.90;51.10;;;;;;5070473;28;43464;-61
2022/12/20 07:52:23;;;;;;;;;;;18.90;51.00;;;;;;5080740;28;43573;-61
2022/12/20 07:54:53;;;;;;;;;;;18.90;51.10;;;;;;5078583;28;43983;-61
2022/12/20 07:57:31;;;;;;;;;;;19.00;51.10;;;;;;5080024;28;44951;-60
2022/12/20 07:59:59;;;;;;;;;;;19.00;51.10;;;;;;5069020;28;43503;-61
2022/12/20 08:02:49;;;;;;;;;;;19.00;51.10;;;;;;5082669;28;43924;-61
2022/12/20 08:05:17;;;;;;;;;;;19.00;51.20;;;;;;5043624;28;43568;-61
2022/12/20 08:07:45;;;;;;;;;;;19.00;51.10;;;;;;5081013;28;44083;-64
2022/12/20 08:10:18;;;;;;;;;;;19.00;51.00;;;;;;5068384;28;43490;-62
2022/12/20 08:12:46;;;;;;;;;;;19.00;51.10;;;;;;5067317;28;43393;-62
2022/12/20 08:15:14;;;;;;;;;;;19.00;51.10;;;;;;5081203;28;43622;-61
2022/12/20 08:17:41;;;;;;;;;;;19.10;51.20;;;;;;5074576;28;44996;-61
2022/12/20 08:20:10;;;;;;;;;;;19.10;50.90;;;;;;5073741;28;43515;-59
2022/12/20 08:22:38;;;;;;;;;;;19.20;51.00;;;;;;5075891;28;43420;-60
2022/12/20 08:25:05;;;;;;;;;;;19.30;51.00;;;;;;5081513;28;43483;-60
2022/12/20 08:27:33;;;;;;;;;;;19.40;50.90;;;;;;5073004;28;44078;-60
2022/12/20 08:30:00;;;;;;;;;;;19.50;50.70;;;;;;5073393;28;43500;-61
2022/12/20 08:32:28;;;;;;;;;;;19.60;50.60;;;;;;5077616;28;43426;-60
2022/12/20 08:34:55;;;;;;;;;;;19.70;50.50;;;;;;5075221;28;43609;-60
2022/12/20 08:37:23;;;;;;;;;;;19.90;50.60;;;;;;5078929;28;44028;-60
2022/12/20 08:39:50;;;;;;;;;;;20.00;50.60;;;;;;5072832;28;43900;-60
2022/12/20 08:42:17;;;;;;;;;;;20.00;50.40;;;;;;5080409;28;43359;-60
2022/12/20 08:44:45;;;;;;;;;;;20.00;50.30;;;;;;5075270;28;43570;-60
2022/12/20 08:47:12;;;;;;;;;;;20.10;50.20;;;;;;5078231;28;44979;-60
2022/12/20 08:49:40;;;;;;;;;;;20.20;50.10;;;;;;5071851;28;43431;-60
2022/12/20 08:52:14;;;;;;;;;;;20.30;50.00;;;;;;5080160;28;43394;-62
2022/12/20 08:54:41;;;;;;;;;;;20.40;50.10;;;;;;5078464;28;43633;-63
2022/12/20 08:57:09;;;;;;;;;;;20.50;50.20;;;;;;5075611;28;44064;-62
2022/12/20 08:59:36;;;;;;;;;;;20.50;49.90;;;;;;5073169;28;43883;-63
2022/12/20 09:02:03;;;;;;;;;;;20.60;49.90;;;;;;5076598;28;43413;-63
2022/12/20 09:04:31;;;;;;;;;;;20.70;50.00;;;;;;5081272;28;43531;-63
2022/12/20 09:06:59;;;;;;;;;;;20.80;50.20;;;;;;5063440;28;43894;-62
2022/12/20 09:09:27;;;;;;;;;;;20.80;50.30;;;;;;5090153;27;43919;-63
2022/12/20 09:11:54;;;;;;;;;;;21.00;49.80;;;;;;5087089;27;43449;-63
2022/12/20 09:14:22;;;;;;;;;;;21.00;50.20;;;;;;5098514;27;43448;-64
2022/12/20 09:16:49;;;;;;;;;;;21.20;50.00;;;;;;5081981;27;44299;-64
2022/12/20 09:19:17;;;;;;;;;;;21.30;49.80;;;;;;5093499;27;43559;-64
2022/12/20 09:21:44;;;;;;;;;;;21.50;49.50;;;;;;5086893;27;43431;-64
2022/12/20 09:24:12;;;;;;;;;;;21.60;49.60;;;;;;5107002;27;43699;-62
2022/12/20 09:26:40;;;;;;;;;;;21.70;49.50;;;;;;5081949;27;44929;-63
2022/12/20 09:29:07;;;;;;;;;;;21.80;49.30;;;;;;5093583;27;43800;-62
2022/12/20 09:31:35;;;;;;;;;;;21.90;49.30;;;;;;5085313;27;43379;-62
2022/12/20 09:34:03;;;;;;;;;;;22.00;49.10;;;;;;5098151;27;43496;-62
2022/12/20 09:36:30;;;;;;;;;;;22.10;49.00;;;;;;5090250;27;44056;-64
2022/12/20 09:38:59;;;;;;;;;;;22.10;48.90;;;;;;5088743;27;43798;-64
2022/12/20 09:41:36;;;;;;;;;;;22.20;48.80;;;;;;5098453;27;43400;-63
2022/12/20 09:44:09;;;;;;;;;;;22.30;48.80;;;;;;5087407;27;43540;-63
2022/12/20 09:46:38;;;;;;;;;;;22.30;49.30;;;;;;5101613;27;44063;-63
2022/12/20 09:49:05;;;;;;;;;;;22.40;48.60;;;;;;5089992;27;43518;-63
2022/12/20 09:51:42;;;;;;;;;;;22.40;48.40;;;;;;5102126;27;43491;-63
2022/12/20 09:54:12;;;;;;;;;;;22.50;48.30;;;;;;5093042;27;43836;-61
2022/12/20 09:56:57;;;;;;;;;;;22.60;48.80;;;;;;5095463;27;43869;-62
2022/12/20 09:59:24;;;;;;;;;;;22.60;48.30;;;;;;5092620;27;43786;-62
2022/12/20 10:01:52;;;;;;;;;;;22.60;48.30;;;;;;5097036;27;43494;-62
2022/12/20 10:04:24;;;;;;;;;;;22.60;48.60;;;;;;5101877;27;43496;-61
2022/12/20 10:06:56;;;;;;;;;;;22.60;48.30;;;;;;5092573;27;44072;-62
2022/12/20 10:09:35;;;;;;;;;;;22.70;48.30;;;;;;5092249;27;43565;-62
2022/12/20 10:12:03;;;;;;;;;;;22.70;48.70;;;;;;5109988;27;43545;-62
2022/12/20 10:14:30;;;;;;;;;;;22.80;48.50;;;;;;5093576;27;43484;-62
2022/12/20 10:17:03;;;;;;;;;;;22.90;48.40;;;;;;5091242;27;44000;-63
2022/12/20 10:19:33;;;;;;;;;;;23.00;49.00;;;;;;5103564;27;43764;-62
2022/12/20 10:22:04;;;;;;;;;;;23.10;48.30;;;;;;5097936;27;43495;-62
2022/12/20 10:24:32;;;;;;;;;;;23.20;48.30;;;;;;5097549;27;43386;-62
2022/12/20 10:27:17;;;;;;;;;;;23.30;48.20;;;;;;5084635;27;44957;-62
2022/12/20 10:29:46;;;;;;;;;;;23.30;48.00;;;;;;5092496;27;43488;-62
2022/12/20 10:32:15;;;;;;;;;;;23.40;48.20;;;;;;5091410;27;43465;-62
2022/12/20 10:34:51;;;;;;;;;;;23.40;47.90;;;;;;5092109;27;43573;-62
2022/12/20 10:37:19;;;;;;;;;;;23.50;47.70;;;;;;5091803;27;44142;-62
2022/12/20 10:39:48;;;;;;;;;;;23.50;47.50;;;;;;5092175;27;43485;-62
2022/12/20 10:42:34;;;;;;;;;;;23.50;47.60;;;;;;5094502;27;43498;-62
2022/12/20 10:45:02;;;;;;;;;;;23.50;47.60;;;;;;5087075;27;43373;-62
2022/12/20 10:47:35;;;;;;;;;;;23.50;47.50;;;;;;5102431;27;44044;-63
2022/12/20 10:50:18;;;;;;;;;;;23.40;47.70;;;;;;5104846;27;43745;-62
2022/12/20 10:53:01;;;;;;;;;;;23.40;47.70;;;;;;5091926;27;43434;-62
2022/12/20 10:55:36;;;;;;;;;;;23.40;47.90;;;;;;5091895;27;43568;-62
2022/12/20 10:58:29;;;;;;;;;;;23.40;48.10;;;;;;5106948;27;44090;-61
2022/12/20 11:01:04;;;;;;;;;;;23.40;47.90;;;;;;5090428;27;43581;-62
2022/12/20 11:03:32;;;;;;;;;;;23.30;47.80;;;;;;5093589;27;44121;-61
2022/12/20 11:06:02;;;;;;;;;;;23.30;48.00;;;;;;5095337;27;43929;-61
2022/12/20 11:08:31;;;;;;;;;;;23.30;47.90;;;;;;5100463;27;43785;-61
2022/12/20 11:11:19;;;;;;;;;;;23.30;48.00;;;;;;5090586;27;43546;-61
2022/12/20 11:13:47;;;;;;;;;;;23.30;48.10;;;;;;5088737;27;43418;-61
2022/12/20 11:16:25;;;;;;;;;;;23.30;48.10;;;;;;5089240;27;43461;-61
2022/12/20 11:19:01;;;;;;;;;;;23.20;48.20;;;;;;5096806;27;44942;-61
2022/12/20 11:21:37;;;;;;;;;;;23.20;48.20;;;;;;5086537;27;43645;-61
2022/12/20 11:24:13;;;;;;;;;;;23.20;48.30;;;;;;5088103;27;43417;-61
2022/12/20 11:27:04;;;;;;;;;;;23.20;48.30;;;;;;5095472;27;43552;-61
2022/12/20 11:29:53;;;;;;;;;;;23.10;48.30;;;;;;5100430;27;44984;-62
2022/12/20 11:32:20;;;;;;;;;;;23.10;48.30;;;;;;5095687;27;43794;-61
2022/12/20 11:34:51;;;;;;;;;;;23.10;48.40;;;;;;5098141;27;43395;-61
2022/12/20 11:37:25;;;;;;;;;;;23.10;48.40;;;;;;5104887;27;43507;-60
2022/12/20 11:40:10;;;;;;;;;;;23.00;48.40;;;;;;5105767;27;44162;-61
2022/12/20 11:42:48;;;;;;;;;;;23.00;48.50;;;;;;5091420;27;43417;-61
2022/12/20 11:45:25;;;;;;;;;;;22.90;48.60;;;;;;5106391;27;43520;-61
2022/12/20 11:47:58;;;;;;;;;;;22.90;48.60;;;;;;5096079;27;43536;-61
2022/12/20 11:50:38;;;;;;;;;;;22.90;48.70;;;;;;5091852;27;43959;-61
2022/12/20 11:53:08;;;;;;;;;;;22.80;48.70;;;;;;5087287;27;44101;-61
2022/12/20 11:55:38;;;;;;;;;;;22.80;48.80;;;;;;5099272;27;43436;-61
2022/12/20 11:58:06;;;;;;;;;;;22.80;48.90;;;;;;5090828;27;43543;-61
2022/12/20 12:00:50;;;;;;;;;;;22.80;49.00;;;;;;5085777;27;45040;-60
2022/12/20 12:03:24;;;;;;;;;;;22.70;49.00;;;;;;5085041;27;43443;-62
2022/12/20 12:05:55;;;;;;;;;;;22.70;49.00;;;;;;5089638;27;43537;-62
2022/12/20 12:08:43;;;;;;;;;;;22.70;49.10;;;;;;5089744;27;43597;-61
2022/12/20 12:11:10;;;;;;;;;;;22.70;49.30;;;;;;5098041;27;43864;-61
2022/12/20 12:14:00;;;;;;;;;;;22.70;49.20;;;;;;5097239;27;43467;-61
2022/12/20 12:16:31;;;;;;;;;;;22.70;49.30;;;;;;5105312;27;43441;-60
2022/12/20 12:18:59;;;;;;;;;;;22.60;49.30;;;;;;5098249;27;43544;-61
2022/12/20 12:21:39;;;;;;;;;;;22.60;49.30;;;;;;5098303;27;45043;-60
2022/12/20 12:24:09;;;;;;;;;;;22.50;49.40;;;;;;5096172;27;44112;-61
2022/12/20 12:26:40;;;;;;;;;;;22.50;49.30;;;;;;5092425;27;43324;-61
2022/12/20 12:29:08;;;;;;;;;;;22.50;49.30;;;;;;5093092;27;43515;-61
2022/12/20 12:31:41;;;;;;;;;;;22.50;49.30;;;;;;5092148;27;43941;-61
2022/12/20 12:34:09;;;;;;;;;;;22.50;49.30;;;;;;5102241;27;43534;-61
2022/12/20 12:36:55;;;;;;;;;;;22.50;49.40;;;;;;5098721;27;43381;-61
2022/12/20 12:39:38;;;;;;;;;;;22.50;49.50;;;;;;5100895;27;43601;-61
2022/12/20 12:42:24;;;;;;;;;;;22.40;49.50;;;;;;5095166;27;44926;-61
2022/12/20 12:45:04;;;;;;;;;;;22.40;49.50;;;;;;5104561;27;43471;-61
2022/12/20 12:47:37;;;;;;;;;;;22.40;49.50;;;;;;5101846;27;43437;-61
2022/12/20 12:50:08;;;;;;;;;;;22.40;49.60;;;;;;5094309;27;43476;-61
2022/12/20 12:52:48;;;;;;;;;;;22.40;49.60;;;;;;5102538;27;44054;-61
2022/12/20 12:55:34;;;;;;;;;;;22.30;49.50;;;;;;5092760;27;43716;-61
2022/12/20 12:58:14;;;;;;;;;;;22.30;49.60;;;;;;5097852;27;43376;-61
2022/12/20 13:00:52;;;;;;;;;;;22.30;49.60;;;;;;5108277;27;43523;-61
2022/12/20 13:03:37;;;;;;;;;;;22.30;49.60;;;;;;5098543;27;43995;-61
2022/12/20 13:06:29;;;;;;;;;;;22.20;49.60;;;;;;5085804;27;43764;-61
2022/12/20 13:08:57;;;;;;;;;;;22.20;49.70;;;;;;5089299;27;43386;-61
2022/12/20 13:11:42;;;;;;;;;;;22.20;49.80;;;;;;5099235;27;43498;-61
2022/12/20 13:14:24;;;;;;;;;;;22.10;49.80;;;;;;5098649;27;43791;-61
2022/12/20 13:16:54;;;;;;;;;;;22.10;49.90;;;;;;5089564;27;43575;-61
2022/12/20 13:19:39;;;;;;;;;;;22.10;49.90;;;;;;5101443;27;43416;-61
2022/12/20 13:22:10;;;;;;;;;;;22.10;50.00;;;;;;5089478;27;43596;-61
2022/12/20 13:24:37;;;;;;;;;;;22.10;50.00;;;;;;5097194;27;43881;-61
2022/12/20 13:27:17;;;;;;;;;;;22.10;50.10;;;;;;5097469;27;43475;-61
2022/12/20 13:30:10;;;;;;;;;;;22.00;50.10;;;;;;5101308;27;43475;-61
2022/12/20 13:32:44;;;;;;;;;;;22.00;50.10;;;;;;5063320;27;43468;-61
2022/12/20 13:35:24;;;;;;;;;;;21.90;50.10;;;;;;5091654;27;44045;-61
2022/12/20 13:37:51;;;;;;;;;;;21.90;50.10;;;;;;5087572;27;43443;-61
2022/12/20 13:40:47;;;;;;;;;;;21.90;50.20;;;;;;5097648;27;43407;-61
2022/12/20 13:43:18;;;;;;;;;;;21.90;50.20;;;;;;5097969;27;43576;-61
2022/12/20 13:46:05;;;;;;;;;;;21.90;50.30;;;;;;5103416;27;44839;-61
2022/12/20 13:48:45;;;;;;;;;;;21.90;50.30;;;;;;5094422;27;43423;-61
2022/12/20 13:51:19;;;;;;;;;;;21.90;50.30;;;;;;5100924;27;43468;-61
2022/12/20 13:53:53;;;;;;;;;;;21.80;50.30;;;;;;5088192;27;43464;-61
2022/12/20 13:56:27;;;;;;;;;;;21.80;50.30;;;;;;5095226;27;43808;-61
2022/12/20 13:58:57;;;;;;;;;;;21.80;50.40;;;;;;5089267;27;43771;-61
2022/12/20 14:01:25;;;;;;;;;;;21.80;50.30;;;;;;5101476;27;43472;-61
2022/12/20 14:03:53;;;;;;;;;;;21.80;50.40;;;;;;5097140;27;43572;-61
2022/12/20 14:06:22;;;;;;;;;;;21.80;50.50;;;;;;5092534;27;44136;-61
2022/12/20 14:08:53;;;;;;;;;;;21.70;50.50;;;;;;5101027;27;43501;-61
2022/12/20 14:11:22;;;;;;;;;;;21.70;50.40;;;;;;5093084;27;43401;-61
2022/12/20 14:14:00;;;;;;;;;;;21.70;50.40;;;;;;5092169;27;43631;-61
2022/12/20 14:16:28;;;;;;;;;;;21.70;50.40;;;;;;5091394;27;44975;-61
2022/12/20 14:18:57;;;;;;;;;;;21.70;50.50;;;;;;5100997;27;43834;-61
2022/12/20 14:21:24;;;;;;;;;;;21.70;50.60;;;;;;5090545;27;43437;-61
2022/12/20 14:23:54;;;;;;;;;;;21.70;50.50;;;;;;5094841;27;44017;-61
2022/12/20 14:26:25;;;;;;;;;;;21.70;50.60;;;;;;5089319;27;44967;-61
2022/12/20 14:28:57;;;;;;;;;;;21.70;51.30;;;;;;5102208;27;43443;-61
2022/12/20 14:31:37;;;;;;;;;;;21.60;50.60;;;;;;5090933;27;43453;-61
2022/12/20 14:34:10;;;;;;;;;;;21.60;50.60;;;;;;5091159;27;43532;-61
2022/12/20 14:36:42;;;;;;;;;;;21.60;50.70;;;;;;5100146;27;44991;-61
2022/12/20 14:39:29;;;;;;;;;;;21.60;50.70;;;;;;5090649;27;43476;-61
2022/12/20 14:42:01;;;;;;;;;;;21.60;50.80;;;;;;5102411;27;43422;-61
2022/12/20 14:44:29;;;;;;;;;;;21.60;50.70;;;;;;5088553;27;43445;-61
2022/12/20 14:47:03;;;;;;;;;;;21.50;50.70;;;;;;5099198;27;44951;-61
2022/12/20 14:49:33;;;;;;;;;;;21.50;50.70;;;;;;5084256;27;43562;-61
2022/12/20 14:52:09;;;;;;;;;;;21.50;50.80;;;;;;5099642;27;43381;-62